createdAt,value
2022-10-26T00:01:25.597Z,101182.63
2022-10-26T00:03:57.262Z,101175.47
2022-10-26T00:06:28.901Z,101175.53
2022-10-26T00:08:59.338Z,101176.47
2022-10-26T00:11:27.735Z,101165.88
2022-10-26T00:13:56.060Z,101159.72
2022-10-26T00:16:28.131Z,101147.19
2022-10-26T00:18:56.739Z,101138.31
2022-10-26T00:21:25.119Z,100948.38
2022-10-26T00:23:56.348Z,101149.59
2022-10-26T00:26:26.108Z,101148.59
2022-10-26T00:28:55.742Z,101141.53
2022-10-26T00:31:24.499Z,101145.06
2022-10-26T00:33:54.824Z,101141.38
2022-10-26T00:36:23.623Z,101145.75
2022-10-26T00:38:53.640Z,101142.25
2022-10-26T00:41:26.709Z,101135.31
2022-10-26T00:43:55.748Z,101136.94
2022-10-26T00:46:27.857Z,101151.00
2022-10-26T00:49:02.352Z,101142.78
2022-10-26T00:51:33.894Z,101140.09
2022-10-26T00:54:05.519Z,101134.78
2022-10-26T00:56:36.979Z,101135.38
2022-10-26T00:59:09.492Z,101143.50
2022-10-26T01:01:42.932Z,101128.47
2022-10-26T01:04:12.172Z,101129.44
2022-10-26T01:06:41.447Z,101082.69
2022-10-26T01:09:10.575Z,101076.69
2022-10-26T01:11:40.120Z,101124.94
2022-10-26T01:14:10.859Z,101119.66
2022-10-26T01:16:49.485Z,101116.19
2022-10-26T01:20:01.994Z,101113.25
2022-10-26T01:22:35.673Z,101107.28
2022-10-26T01:25:16.015Z,101104.72
2022-10-26T01:27:48.760Z,101111.22
2022-10-26T01:30:22.819Z,100894.41
2022-10-26T01:33:12.049Z,101103.63
2022-10-26T01:35:51.256Z,101115.31
2022-10-26T01:38:29.066Z,101108.56
2022-10-26T01:41:06.060Z,101096.00
2022-10-26T01:43:38.798Z,101103.06
2022-10-26T01:46:10.859Z,101094.31
2022-10-26T01:48:41.635Z,101075.81
2022-10-26T01:51:12.449Z,101089.56
2022-10-26T01:53:46.764Z,101081.53
2022-10-26T01:56:21.100Z,101030.34
2022-10-26T01:59:14.935Z,101073.50
2022-10-26T02:02:28.855Z,101075.22
2022-10-26T02:05:34.057Z,101061.41
2022-10-26T02:08:33.429Z,101075.63
2022-10-26T02:11:13.684Z,101079.44
2022-10-26T02:13:48.732Z,101074.84
2022-10-26T02:16:23.936Z,101083.84
2022-10-26T02:19:02.497Z,101058.34
2022-10-26T02:21:38.255Z,101074.75
2022-10-26T02:24:09.900Z,101073.00
2022-10-26T02:26:39.410Z,101074.66
2022-10-26T02:29:14.920Z,101069.41
2022-10-26T02:31:45.147Z,101059.72
2022-10-26T02:34:20.071Z,101029.03
2022-10-26T02:36:50.921Z,101065.94
2022-10-26T02:39:20.757Z,101053.56
2022-10-26T02:41:50.157Z,101066.84
2022-10-26T02:44:24.914Z,101066.78
2022-10-26T02:46:54.169Z,101063.97
2022-10-26T02:49:23.848Z,101069.19
2022-10-26T02:52:02.560Z,101063.19
2022-10-26T02:54:37.927Z,101053.47
2022-10-26T02:57:12.665Z,101022.53
2022-10-26T02:59:44.982Z,101045.50
2022-10-26T03:02:14.300Z,101043.72
2022-10-26T03:04:43.907Z,101049.03
2022-10-26T03:07:12.184Z,101034.13
2022-10-26T03:09:40.448Z,101052.56
2022-10-26T03:12:08.763Z,101048.84
2022-10-26T03:14:36.941Z,101049.75
2022-10-26T03:17:05.200Z,101049.88
2022-10-26T03:19:33.446Z,101028.91
2022-10-26T03:22:03.058Z,101036.91
2022-10-26T03:24:31.284Z,101047.41
2022-10-26T03:27:02.060Z,101042.06
2022-10-26T03:29:30.822Z,101041.94
2022-10-26T03:31:59.147Z,101029.47
2022-10-26T03:34:27.406Z,101044.63
2022-10-26T03:36:55.649Z,101038.41
2022-10-26T03:39:25.278Z,101005.84
2022-10-26T03:44:26.719Z,101040.78
2022-10-26T03:46:54.957Z,101041.50
2022-10-26T03:49:23.221Z,101012.25
2022-10-26T03:51:51.448Z,101030.59
2022-10-26T03:54:19.742Z,101037.34
2022-10-26T03:56:52.654Z,101011.66
2022-10-26T03:59:23.329Z,101033.41
2022-10-26T04:01:54.117Z,101036.03
2022-10-26T04:04:26.539Z,101030.78
2022-10-26T04:06:54.782Z,101025.31
2022-10-26T04:09:22.977Z,101020.97
2022-10-26T04:11:52.679Z,101030.63
2022-10-26T04:14:20.887Z,101028.97
2022-10-26T04:16:49.112Z,101039.63
2022-10-26T04:19:17.386Z,101032.50
2022-10-26T04:21:45.581Z,101037.03
2022-10-26T04:24:14.063Z,101038.69
2022-10-26T04:26:42.377Z,101036.03
2022-10-26T04:29:13.740Z,101041.47
2022-10-26T04:34:12.998Z,101033.66
2022-10-26T04:36:41.451Z,101036.41
2022-10-26T04:39:09.903Z,101025.84
2022-10-26T04:41:38.264Z,101033.59
2022-10-26T04:44:06.739Z,101025.84
2022-10-26T04:46:36.333Z,101023.97
2022-10-26T04:49:04.632Z,101036.50
2022-10-26T04:51:32.815Z,101031.09
2022-10-26T04:54:01.704Z,101029.38
2022-10-26T04:56:30.057Z,101028.56
2022-10-26T04:58:58.279Z,101007.31
2022-10-26T05:01:26.657Z,101032.84
2022-10-26T05:03:56.351Z,101014.28
2022-10-26T05:06:24.832Z,101023.28
2022-10-26T05:08:53.022Z,101025.00
2022-10-26T05:11:21.326Z,101032.88
2022-10-26T05:13:49.679Z,101014.25
2022-10-26T05:16:17.926Z,101033.34
2022-10-26T05:18:48.969Z,101037.00
2022-10-26T05:21:20.263Z,101015.63
2022-10-26T05:23:52.535Z,101033.09
2022-10-26T05:26:20.846Z,101040.97
2022-10-26T05:28:49.373Z,100973.41
2022-10-26T05:31:17.615Z,101036.59
2022-10-26T05:33:45.869Z,101032.25
2022-10-26T05:36:14.096Z,101029.47
2022-10-26T05:38:43.640Z,101029.41
2022-10-26T05:41:11.959Z,101037.56
2022-10-26T05:43:40.529Z,101012.75
2022-10-26T05:46:08.793Z,101023.34
2022-10-26T05:48:37.026Z,101032.22
2022-10-26T05:51:05.631Z,101006.47
2022-10-26T05:53:34.173Z,101020.72
2022-10-26T05:56:06.170Z,101009.31
2022-10-26T05:58:39.228Z,101018.34
2022-10-26T06:01:23.405Z,101013.59
2022-10-26T06:04:12.654Z,101025.91
2022-10-26T06:06:46.239Z,101041.00
2022-10-26T06:09:16.232Z,101022.44
2022-10-26T06:11:46.808Z,101008.44
2022-10-26T06:14:15.945Z,100969.78
2022-10-26T06:17:03.441Z,101030.69
2022-10-26T06:19:50.622Z,101030.63
2022-10-26T06:22:38.170Z,101038.47
2022-10-26T06:25:21.163Z,101022.63
2022-10-26T06:27:59.931Z,101038.41
2022-10-26T06:30:28.224Z,101026.91
2022-10-26T06:33:05.952Z,101004.28
2022-10-26T06:35:55.875Z,101040.25
2022-10-26T06:38:26.529Z,101063.09
2022-10-26T06:40:57.156Z,101054.00
2022-10-26T06:43:30.571Z,101057.78
2022-10-26T06:46:09.701Z,101011.91
2022-10-26T06:48:52.079Z,101058.41
2022-10-26T06:51:21.681Z,101059.31
2022-10-26T06:53:59.549Z,101048.81
2022-10-26T06:56:28.415Z,101048.19
2022-10-26T06:59:07.643Z,101040.94
2022-10-26T07:01:36.026Z,101057.41
2022-10-26T07:04:04.436Z,101062.44
2022-10-26T07:06:34.431Z,101064.50
2022-10-26T07:09:05.278Z,101073.03
2022-10-26T07:11:33.500Z,101076.28
2022-10-26T07:14:03.093Z,101089.28
2022-10-26T07:16:32.078Z,101090.94
2022-10-26T07:19:00.382Z,101077.50
2022-10-26T07:21:29.624Z,101099.03
2022-10-26T07:23:57.934Z,101105.78
2022-10-26T07:26:27.378Z,101111.34
2022-10-26T07:28:55.659Z,101109.78
2022-10-26T07:31:26.253Z,101123.63
2022-10-26T07:33:55.464Z,101123.97
2022-10-26T07:36:23.855Z,101109.38
2022-10-26T07:38:54.032Z,101132.81
2022-10-26T07:41:22.332Z,101138.84
2022-10-26T07:43:50.844Z,101147.03
2022-10-26T07:46:19.265Z,101155.16
2022-10-26T07:48:48.912Z,101147.28
2022-10-26T07:51:17.198Z,101152.13
2022-10-26T07:53:45.513Z,101153.94
2022-10-26T07:56:14.183Z,101153.41
2022-10-26T07:58:43.009Z,101134.53
2022-10-26T08:01:13.683Z,101124.03
2022-10-26T08:03:42.649Z,101157.19
2022-10-26T08:06:12.490Z,101145.94
2022-10-26T08:08:44.865Z,101124.47
2022-10-26T08:11:16.018Z,101139.00
2022-10-26T08:13:44.462Z,101140.38
2022-10-26T08:16:13.511Z,101098.03
2022-10-26T08:18:41.794Z,101133.97
2022-10-26T08:21:15.571Z,101138.53
2022-10-26T08:23:49.839Z,101147.00
2022-10-26T08:26:18.560Z,101151.00
2022-10-26T08:28:51.023Z,101164.28
2022-10-26T08:31:19.332Z,101164.09
2022-10-26T08:33:47.537Z,101170.63
2022-10-26T08:36:23.236Z,101171.44
2022-10-26T08:38:52.407Z,101188.72
2022-10-26T08:41:28.789Z,101190.72
2022-10-26T08:44:00.270Z,101187.06
2022-10-26T08:46:33.646Z,101189.88
2022-10-26T08:49:10.097Z,101189.88
2022-10-26T08:51:42.485Z,101186.66
2022-10-26T08:54:15.678Z,101191.59
2022-10-26T08:56:50.082Z,101194.28
2022-10-26T08:59:31.043Z,101187.66
2022-10-26T09:02:01.887Z,101205.34
2022-10-26T09:04:34.082Z,101204.19
2022-10-26T09:07:14.024Z,101204.28
2022-10-26T09:09:51.974Z,101209.31
2022-10-26T09:12:29.241Z,101204.00
2022-10-26T09:15:12.178Z,101201.06
2022-10-26T09:17:53.674Z,101215.97
2022-10-26T09:20:46.165Z,101212.41
2022-10-26T09:23:32.792Z,101195.78
2022-10-26T09:26:03.983Z,101226.19
2022-10-26T09:28:36.980Z,101220.00
2022-10-26T09:31:06.401Z,101221.97
2022-10-26T09:33:40.611Z,101233.03
2022-10-26T09:36:16.098Z,101212.63
2022-10-26T09:38:52.659Z,101244.69
2022-10-26T09:41:29.579Z,101254.53
2022-10-26T09:44:05.585Z,101252.53
2022-10-26T09:46:41.514Z,101250.00
2022-10-26T09:49:13.845Z,101255.91
2022-10-26T09:51:43.050Z,101259.44
2022-10-26T09:54:17.756Z,101263.22
2022-10-26T09:56:50.929Z,101249.78
2022-10-26T09:59:23.882Z,101269.94
2022-10-26T10:01:52.404Z,101265.28
2022-10-26T10:04:24.054Z,101270.41
2022-10-26T10:06:54.547Z,101283.75
2022-10-26T10:09:25.320Z,101289.59
2022-10-26T10:11:58.839Z,101272.69
2022-10-26T10:14:32.459Z,101293.31
2022-10-26T10:17:04.592Z,101282.56
2022-10-26T10:19:35.586Z,101285.28
2022-10-26T10:22:13.157Z,101309.25
2022-10-26T10:24:44.679Z,101300.06
2022-10-26T10:27:19.440Z,101304.69
2022-10-26T10:29:49.875Z,101293.44
2022-10-26T10:32:20.727Z,101313.47
2022-10-26T10:34:49.991Z,101309.97
2022-10-26T10:37:28.375Z,101311.47
2022-10-26T10:40:01.893Z,101314.53
2022-10-26T10:42:35.217Z,101306.38
2022-10-26T10:45:05.998Z,101317.81
2022-10-26T10:47:37.118Z,101318.47
2022-10-26T10:50:12.905Z,101331.75
2022-10-26T10:52:41.375Z,101331.28
2022-10-26T10:55:19.707Z,101338.72
2022-10-26T10:58:09.367Z,101336.16
2022-10-26T11:00:38.898Z,101298.97
2022-10-26T11:04:07.663Z,101348.34
2022-10-26T11:06:37.816Z,101351.75
2022-10-26T11:09:10.335Z,101359.22
2022-10-26T11:11:46.013Z,101358.78
2022-10-26T11:14:18.404Z,101360.41
2022-10-26T11:16:50.507Z,101371.78
2022-10-26T11:19:23.786Z,101374.44
2022-10-26T11:21:55.728Z,101373.81
2022-10-26T11:24:29.828Z,101373.19
2022-10-26T11:27:07.906Z,101373.34
2022-10-26T11:29:48.671Z,101373.41
2022-10-26T11:32:22.641Z,101377.22
2022-10-26T11:34:58.004Z,101369.81
2022-10-26T11:37:37.576Z,101388.66
2022-10-26T11:40:24.293Z,101382.66
2022-10-26T11:43:06.808Z,101258.84
2022-10-26T11:45:41.032Z,101384.59
2022-10-26T11:48:19.414Z,101397.03
2022-10-26T11:50:52.616Z,101384.50
2022-10-26T11:53:26.128Z,101388.69
2022-10-26T11:55:56.134Z,101400.41
2022-10-26T11:58:28.614Z,101377.09
2022-10-26T12:01:03.690Z,101378.91
2022-10-26T12:03:37.892Z,101411.72
2022-10-26T12:06:06.639Z,101414.81
2022-10-26T12:08:39.958Z,101403.91
2022-10-26T12:11:18.627Z,101407.94
2022-10-26T12:13:55.364Z,101411.88
2022-10-26T12:16:44.099Z,101402.44
2022-10-26T12:19:19.867Z,101425.75
2022-10-26T12:21:50.598Z,101437.22
2022-10-26T12:24:35.273Z,101427.72
2022-10-26T12:27:06.320Z,101422.00
2022-10-26T12:29:50.186Z,101429.19
2022-10-26T12:32:52.477Z,101432.69
2022-10-26T12:35:36.721Z,101445.66
2022-10-26T12:38:57.293Z,101427.50
2022-10-26T12:41:29.533Z,101387.63
2022-10-26T12:43:59.366Z,101380.03
2022-10-26T12:46:45.437Z,101415.78
2022-10-26T12:50:04.240Z,101429.28
2022-10-26T12:52:43.963Z,101422.78
2022-10-26T12:55:56.318Z,101426.72
2022-10-26T12:59:21.929Z,101426.19
2022-10-26T13:02:27.238Z,101435.06
2022-10-26T13:05:41.662Z,101434.19
2022-10-26T13:08:13.027Z,101436.63
2022-10-26T13:11:01.515Z,101439.03
2022-10-26T13:13:32.675Z,101439.56
2022-10-26T13:16:03.994Z,101437.75
2022-10-26T13:18:43.725Z,101454.97
2022-10-26T13:21:15.069Z,101447.13
2022-10-26T13:23:46.779Z,101449.63
2022-10-26T13:26:18.294Z,101456.41
2022-10-26T13:28:51.090Z,101426.06
2022-10-26T13:31:59.134Z,101464.16
2022-10-26T13:34:32.033Z,101460.34
2022-10-26T13:37:16.628Z,101439.69
2022-10-26T13:39:49.118Z,101474.06
2022-10-26T13:42:21.274Z,101467.53
2022-10-26T13:44:55.076Z,101469.09
2022-10-26T13:47:30.251Z,101471.16
2022-10-26T13:50:05.799Z,101463.13
2022-10-26T13:52:37.724Z,101469.91
2022-10-26T13:55:14.290Z,101480.06
2022-10-26T13:57:46.378Z,101482.06
2022-10-26T14:00:20.952Z,101472.03
2022-10-26T14:02:49.771Z,101489.03
2022-10-26T14:05:20.656Z,101487.69
2022-10-26T14:07:52.735Z,101494.81
2022-10-26T14:10:29.076Z,101492.91
2022-10-26T14:12:57.421Z,101502.91
2022-10-26T14:15:28.627Z,101489.59
2022-10-26T14:17:57.862Z,101504.00
2022-10-26T14:20:29.300Z,101507.44
2022-10-26T14:22:57.819Z,101481.41
2022-10-26T14:25:41.718Z,101499.69
2022-10-26T14:28:24.349Z,101513.75
2022-10-26T14:30:52.736Z,101519.69
2022-10-26T14:33:25.231Z,101523.28
2022-10-26T14:35:55.705Z,101534.72
2022-10-26T14:38:27.508Z,101533.31
2022-10-26T14:40:57.561Z,101525.97
2022-10-26T14:43:28.021Z,101535.06
2022-10-26T14:45:57.296Z,101534.31
2022-10-26T14:48:30.045Z,101531.78
2022-10-26T14:51:12.295Z,101530.03
2022-10-26T14:53:42.199Z,101511.25
2022-10-26T14:56:23.995Z,101528.25
2022-10-26T14:58:53.152Z,101494.16
2022-10-26T15:01:35.767Z,101531.03
2022-10-26T15:04:07.053Z,101527.41
2022-10-26T15:06:47.511Z,101504.38
2022-10-26T15:09:39.017Z,101531.53
2022-10-26T15:12:09.523Z,101530.97
2022-10-26T15:14:38.007Z,101553.59
2022-10-26T15:17:06.329Z,101565.19
2022-10-26T15:19:35.345Z,101544.03
2022-10-26T15:22:05.007Z,101551.72
2022-10-26T15:24:38.796Z,101557.31
2022-10-26T15:27:16.254Z,101547.78
2022-10-26T15:29:47.012Z,101308.56
2022-10-26T15:32:28.599Z,101542.75
2022-10-26T15:35:25.063Z,101576.72
2022-10-26T15:37:56.865Z,101583.84
2022-10-26T15:40:26.935Z,101597.16
2022-10-26T15:42:56.459Z,101609.41
2022-10-26T15:45:27.064Z,101615.47
2022-10-26T15:47:58.210Z,101613.63
2022-10-26T15:50:29.089Z,101614.13
2022-10-26T15:53:17.673Z,101624.19
2022-10-26T15:55:46.072Z,101620.81
2022-10-26T15:58:14.731Z,101626.13
2022-10-26T16:00:43.039Z,101618.69
2022-10-26T16:03:15.659Z,101600.22
2022-10-26T16:05:44.075Z,101612.25
2022-10-26T16:08:18.045Z,101612.31
2022-10-26T16:10:48.128Z,101615.38
2022-10-26T16:13:17.006Z,101615.44
2022-10-26T16:15:45.699Z,101623.88
2022-10-26T16:18:14.410Z,101633.66
2022-10-26T16:20:46.546Z,101615.19
2022-10-26T16:23:16.421Z,101631.19
2022-10-26T16:25:46.936Z,101630.59
2022-10-26T16:28:18.057Z,101617.47
2022-10-26T16:30:46.374Z,101628.41
2022-10-26T16:33:14.786Z,101607.47
2022-10-26T16:35:43.096Z,101636.47
2022-10-26T16:38:11.341Z,101642.75
2022-10-26T16:40:43.204Z,101631.53
2022-10-26T16:43:11.698Z,101636.06
2022-10-26T16:45:42.025Z,101624.06
2022-10-26T16:48:14.868Z,101653.56
2022-10-26T16:50:43.250Z,101650.75
2022-10-26T16:53:11.437Z,101652.09
2022-10-26T16:58:09.531Z,101655.72
2022-10-26T17:00:38.549Z,101660.16
2022-10-26T17:03:06.872Z,101654.66
2022-10-26T17:05:35.094Z,101652.94
2022-10-26T17:08:03.389Z,101670.09
2022-10-26T17:10:31.751Z,101663.00
2022-10-26T17:13:01.342Z,101665.47
2022-10-26T17:15:29.595Z,101668.22
2022-10-26T17:17:58.118Z,101660.47
2022-10-26T17:20:26.428Z,101671.03
2022-10-26T17:22:54.692Z,101672.84
2022-10-26T17:25:22.965Z,101658.50
2022-10-26T17:27:51.221Z,101674.75
2022-10-26T17:30:20.962Z,101595.66
2022-10-26T17:32:49.581Z,101695.25
2022-10-26T17:35:18.951Z,101696.28
2022-10-26T17:37:47.563Z,101713.16
2022-10-26T17:40:16.054Z,101723.78
2022-10-26T17:42:44.351Z,101682.25
2022-10-26T17:45:13.130Z,101739.69
2022-10-26T17:47:42.807Z,101743.22
2022-10-26T17:50:11.427Z,101718.44
2022-10-26T17:52:39.737Z,101752.03
2022-10-26T17:55:08.826Z,101756.41
2022-10-26T17:57:37.210Z,101763.63
2022-10-26T18:00:06.794Z,101771.72
2022-10-26T18:02:42.293Z,101772.00
2022-10-26T18:05:11.773Z,101778.34
2022-10-26T18:07:40.045Z,101772.25
2022-10-26T18:10:32.865Z,101771.53
2022-10-26T18:12:57.620Z,101774.25
2022-10-26T18:15:26.030Z,101779.84
2022-10-26T18:17:58.394Z,101772.22
2022-10-26T18:20:28.223Z,101773.22
2022-10-26T18:22:57.778Z,101790.16
2022-10-26T18:25:26.372Z,101794.72
2022-10-26T18:27:54.953Z,101782.28
2022-10-26T18:30:23.674Z,101791.25
2022-10-26T18:32:53.377Z,101785.19
2022-10-26T18:35:24.257Z,101749.81
2022-10-26T18:37:52.969Z,101798.47
2022-10-26T18:40:21.550Z,101802.00
2022-10-26T18:42:49.914Z,101809.97
2022-10-26T18:45:18.338Z,101815.38
2022-10-26T18:47:46.691Z,101822.47
2022-10-26T18:50:15.135Z,101815.31
2022-10-26T18:52:44.767Z,101808.13
2022-10-26T18:55:13.023Z,101828.53
2022-10-26T18:57:41.471Z,101828.53
2022-10-26T19:00:11.580Z,101820.56
2022-10-26T19:02:39.963Z,101832.94
2022-10-26T19:05:09.431Z,101835.63
2022-10-26T19:07:39.146Z,101837.41
2022-10-26T19:10:10.764Z,101820.91
2022-10-26T19:12:39.086Z,101839.72
2022-10-26T19:15:08.691Z,101837.91
2022-10-26T19:17:36.985Z,101844.28
2022-10-26T19:20:06.809Z,101848.91
2022-10-26T19:22:35.028Z,101858.09
2022-10-26T19:25:03.929Z,101856.47
2022-10-26T19:27:33.540Z,101855.47
2022-10-26T19:30:01.883Z,101860.78
2022-10-26T19:32:30.366Z,101857.09
2022-10-26T19:34:58.649Z,101864.25
2022-10-26T19:37:28.467Z,101865.09
2022-10-26T19:39:57.146Z,101874.03
2022-10-26T19:42:25.404Z,101860.50
2022-10-26T19:44:55.095Z,101862.22
2022-10-26T19:47:23.964Z,101854.19
2022-10-26T19:49:52.285Z,101855.84
2022-10-26T19:52:20.591Z,101830.22
2022-10-26T19:54:48.819Z,101856.75
2022-10-26T19:57:17.128Z,101854.97
2022-10-26T19:59:45.298Z,101856.84
2022-10-26T20:02:15.105Z,101857.16
2022-10-26T20:04:43.367Z,101865.31
2022-10-26T20:07:11.813Z,101876.22
2022-10-26T20:09:40.033Z,101873.94
2022-10-26T20:12:12.538Z,101875.88
2022-10-26T20:14:40.931Z,101880.59
2022-10-26T20:17:09.222Z,101886.03
2022-10-26T20:19:39.008Z,101888.81
2022-10-26T20:22:07.322Z,101880.81
2022-10-26T20:24:35.573Z,101891.41
2022-10-26T20:27:03.859Z,101895.78
2022-10-26T20:29:32.110Z,101889.41
2022-10-26T20:32:00.379Z,101892.88
2022-10-26T20:37:03.318Z,101896.25
2022-10-26T20:39:32.332Z,101898.91
2022-10-26T20:42:01.364Z,101895.47
2022-10-26T20:44:34.447Z,101889.25
2022-10-26T20:47:03.351Z,101900.78
2022-10-26T20:49:32.389Z,101901.69
2022-10-26T20:52:20.682Z,101906.16
2022-10-26T20:54:56.704Z,101899.97
2022-10-26T20:57:32.003Z,101908.78
2022-10-26T21:00:05.502Z,101885.03
2022-10-26T21:02:33.788Z,101907.09
2022-10-26T21:05:02.052Z,101897.31
2022-10-26T21:07:31.666Z,101919.50
2022-10-26T21:09:59.944Z,101916.06
2022-10-26T21:12:28.180Z,101911.63
2022-10-26T21:14:56.425Z,101915.22
2022-10-26T21:17:24.996Z,101911.03
2022-10-26T21:19:53.146Z,101906.72
2022-10-26T21:22:21.446Z,101909.34
2022-10-26T21:24:51.126Z,101920.09
2022-10-26T21:27:19.491Z,101922.75
2022-10-26T21:29:47.796Z,101926.44
2022-10-26T21:32:16.058Z,101920.13
2022-10-26T21:34:44.244Z,101922.94
2022-10-26T21:37:12.486Z,101925.53
2022-10-26T21:39:40.876Z,101922.81
2022-10-26T21:42:10.531Z,101924.88
2022-10-26T21:44:41.244Z,101925.91
2022-10-26T21:47:10.676Z,101932.31
2022-10-26T21:49:38.980Z,101923.44
2022-10-26T21:52:08.440Z,101926.56
2022-10-26T21:54:36.684Z,101930.09
2022-10-26T21:57:05.088Z,101929.25
2022-10-26T21:59:34.662Z,101921.34
2022-10-26T22:02:03.095Z,101926.88
2022-10-26T22:04:31.534Z,101918.06
2022-10-26T22:06:59.775Z,101922.38
2022-10-26T22:09:28.033Z,101916.81
2022-10-26T22:11:56.372Z,101906.28
2022-10-26T22:14:24.716Z,101921.88
2022-10-26T22:16:54.340Z,101912.84
2022-10-26T22:19:22.742Z,101898.53
2022-10-26T22:21:50.979Z,101919.44
2022-10-26T22:24:19.180Z,101920.09
2022-10-26T22:26:47.515Z,101912.78
2022-10-26T22:29:15.742Z,101912.59
2022-10-26T22:31:44.007Z,101914.31
2022-10-26T22:34:17.498Z,101915.22
2022-10-26T22:36:45.789Z,101919.59
2022-10-26T22:39:14.284Z,101924.88
2022-10-26T22:41:42.534Z,101914.91
2022-10-26T22:44:10.889Z,101925.59
2022-10-26T22:46:39.281Z,101922.78
2022-10-26T22:49:07.562Z,101922.63
2022-10-26T22:51:37.227Z,101918.03
2022-10-26T22:54:06.672Z,101924.25
2022-10-26T22:56:37.128Z,101917.94
2022-10-26T22:59:06.289Z,101923.25
2022-10-26T23:01:39.388Z,101918.19
2022-10-26T23:04:07.758Z,101856.75
2022-10-26T23:06:37.316Z,101924.94
2022-10-26T23:09:06.394Z,101929.06
2022-10-26T23:11:34.876Z,101926.06
2022-10-26T23:14:04.699Z,101922.63
2022-10-26T23:16:33.785Z,101923.09
2022-10-26T23:19:02.053Z,101924.19
2022-10-26T23:21:30.499Z,101920.31
2022-10-26T23:24:00.088Z,101925.19
2022-10-26T23:26:28.472Z,101929.72
2022-10-26T23:28:56.962Z,101924.16
2022-10-26T23:31:27.521Z,101888.03
2022-10-26T23:33:57.637Z,101922.66
2022-10-26T23:36:26.604Z,101918.25
2022-10-26T23:38:54.884Z,101928.78
2022-10-26T23:41:24.479Z,101923.41
2022-10-26T23:43:52.691Z,101925.06
2022-10-26T23:46:20.915Z,101922.38
2022-10-26T23:48:49.137Z,101920.84
2022-10-26T23:51:17.362Z,101919.75
2022-10-26T23:53:45.602Z,101921.56
2022-10-26T23:56:13.798Z,101923.25
2022-10-26T23:58:43.404Z,101923.25
